Wittmundhafen Air Base

ETNT · 下萨克森, 德国

罗盘
风向 的 风向 360° Wittmundhafen Air Base 8/26
风: 13 kt, 4 beaufort

3 kt

13 kt
改变
0 ft 1.000 2.000 3.000 4.000 5.000
N/A
METAR ETWM 051120Z AUTO 36013KT //// // ////// 06/04 Q1036 ///

METAR Wittmundhafen Air Base - ETNT

Wittmundhafen Air Base是,德国中的中型机场。 该机场有一条跑道: 8/26. 该领域的国际民航组织标志是ETNT.

这份报告是针对2023年2月5日 12:20, 当地时间在Meppen Air Base进行的。

机场观察

风向为360°,速度为13 kt。

温度为6 °C,阵风为1 °C。 露点为4 °C,相对湿度为87%。 海平面上的气压为1036 hPa (QNH)。

白天

今天,太阳从08:07升起,在17:18降落。 这适用于Wittmundhafen Air Base,世界夏令时可能有所不同。 当地时间与世界标准时间之间的时差为+1 小时。 当前,没有夏令时有效。

公司介绍

我们没有关于这个机场的公司信息。

体会

到Vliegles.nl去找飞行课程,跳伞和其他飞行体验。 浏览页面,了解Wittmundhafen Air Base附近所有可用的活动。 你也可以使用搜索功能来寻找你所在地附近的特定飞行课程、跳伞或其他飞行体验。

跑道

Id 标题 侧风 逆风 侧风 %
8/26 077°-257° 13 kt 3 kt 97 %

逆风成分最大的方向会被突出显示,并用于横风计算。 这并不一定意味着这个方向在使用。

乌云

0 ft

温度 & 天气

温度 6 °C
露点 4 °C
相对湿度 87%
风寒 1 °C
Kp-index 1 (0-9)

白天

日出
08:06
中午
12:44
日落
17:22 (4:33)

小工具

你想在你的网站上有一个关于Wittmundhafen Air Base的当前航空天气(METAR)的小部件吗?

显示HTML代码

我们和第三方通过cookies跟踪您在我们网站上的互联网行为。如果你继续,我们认为你同意我们的饼干政策